GRZ544 Details

Departure: Denver International Airport (KDEN)
Arrival: Ted Stevens Anchorage International Airport (PANC)
Route: RIKKK4 FISAR BIL J13 GTF J569 DORSE 52N20 RIBIT AKTEX 59N40 JOH WITTI4


Current Weather Information
KDEN 191653Z 34004KT 10SM FEW120 SCT220 32/M01 A3014 RMK AO2 SLP108 T03221011 $
PANC 191653Z 05003KT 10SM BKN023 BKN200 11/01 A2994 RMK AO2 SLP141 FU BKN023 T01060011